Caceres, Spain
Current Conditions -  °F | °C
As of 9:00 PM on Thursday 27 Nov 2014 (Local Time) from LEBZ Reporting Station
Scattered Clouds Scattered Clouds  
Wind Chill: 12°   Ceiling: Unl
Heat Index: 12°   Visibility: 6mi
Dew Point: 10°   Wind: 9mph
Humidity: 88%   Direction: 180°S
Pressure: 29.23"   Gusts: NA
Location:  39.48°N, 6.37°W
Report Text: LEBZ 272000Z 18008KT 140V220 9999 SCT035 12/10 Q0990
Loading
Personal Weather Stations






























Interactive Weather Map New forecast layout! Learn more

10-Day Weather Forecast

Advertisements
Track Severe Weather on mobile